Time;durP1;ratioP1;P1;durP2;ratioP2;P2;SDS_P1;SDS_P2;PMS_P1;PMS_P2;Temp;Humidity;BMP_temperature;BMP_pressure;BME280_temperature;BME280_humidity;BME280_pressure;Samples;Min_cycle;Max_cycle;Signal;HPM_P1;HPM_P2
2023/04/22 00:01:01;;;;;;;18.70;11.07;;;10.70;99.90;;;;;;4993805;28;20060;-65
2023/04/22 00:03:27;;;;;;;15.70;10.45;;;10.90;99.90;;;;;;4995917;28;20509;-65
2023/04/22 00:05:53;;;;;;;17.05;10.88;;;10.80;99.90;;;;;;4998496;28;20087;-65
2023/04/22 00:08:19;;;;;;;15.50;10.35;;;10.60;99.90;;;;;;4996307;28;20083;-65
2023/04/22 00:10:45;;;;;;;15.90;10.63;;;10.70;99.90;;;;;;5001605;28;20470;-64
2023/04/22 00:13:10;;;;;;;14.23;10.43;;;10.60;99.90;;;;;;5012829;28;20081;-65
2023/04/22 00:15:36;;;;;;;16.55;10.95;;;10.40;99.90;;;;;;5002902;28;20373;-64
2023/04/22 00:18:02;;;;;;;15.15;10.45;;;10.60;99.90;;;;;;4995675;28;20037;-65
2023/04/22 00:20:28;;;;;;;14.70;10.40;;;10.40;99.90;;;;;;4996089;28;20045;-65
2023/04/22 00:22:53;;;;;;;15.73;10.15;;;10.20;99.90;;;;;;5022517;28;20816;-65
2023/04/22 00:25:19;;;;;;;15.30;9.98;;;10.20;99.90;;;;;;5028003;28;20121;-65
2023/04/22 00:27:45;;;;;;;15.02;10.73;;;10.10;99.90;;;;;;4996518;28;20045;-65
2023/04/22 00:30:11;;;;;;;14.50;10.05;;;10.10;99.90;;;;;;5014426;28;20042;-65
2023/04/22 00:32:37;;;;;;;12.27;9.82;;;9.90;99.90;;;;;;4996652;28;20124;-65
2023/04/22 00:35:03;;;;;;;14.65;10.77;;;9.90;99.90;;;;;;5031893;28;20125;-64
2023/04/22 00:37:29;;;;;;;14.43;10.25;;;9.70;99.90;;;;;;5012269;28;20113;-65
2023/04/22 00:39:56;;;;;;;14.70;9.73;;;9.90;99.90;;;;;;5012372;28;20112;-65
2023/04/22 00:42:22;;;;;;;15.88;10.82;;;9.60;99.90;;;;;;5011736;28;20041;-65
2023/04/22 00:44:48;;;;;;;16.33;10.85;;;9.70;99.90;;;;;;5012134;28;20117;-65
2023/04/22 00:47:15;;;;;;;16.88;10.90;;;9.60;99.90;;;;;;5026862;28;20462;-65
2023/04/22 00:49:41;;;;;;;15.07;10.20;;;9.60;99.90;;;;;;5016467;28;20046;-65
2023/04/22 00:52:06;;;;;;;14.23;9.95;;;9.50;99.90;;;;;;5004522;28;20041;-65
2023/04/22 00:54:34;;;;;;;15.88;11.18;;;9.60;99.90;;;;;;4999734;28;20037;-64
2023/04/22 00:57:01;;;;;;;19.90;11.73;;;9.70;99.90;;;;;;5000218;28;20045;-65
2023/04/22 00:59:27;;;;;;;16.25;10.27;;;9.60;99.90;;;;;;5008015;28;20071;-64
2023/04/22 01:01:53;;;;;;;16.00;11.40;;;9.50;99.90;;;;;;4998050;28;20049;-64
2023/04/22 01:04:20;;;;;;;16.23;10.68;;;9.50;99.90;;;;;;5014160;28;20034;-65
2023/04/22 01:06:46;;;;;;;13.10;10.45;;;9.60;99.90;;;;;;4997404;28;20579;-64
2023/04/22 01:09:12;;;;;;;15.63;9.55;;;9.40;99.90;;;;;;5018349;28;20064;-64
2023/04/22 01:11:38;;;;;;;11.55;9.38;;;9.40;99.90;;;;;;4996594;28;20044;-65
2023/04/22 01:14:03;;;;;;;14.32;9.43;;;9.40;99.90;;;;;;5018680;28;20041;-64
2023/04/22 01:16:32;;;;;;;14.02;10.20;;;9.30;99.90;;;;;;5013981;28;20025;-65
2023/04/22 01:18:58;;;;;;;14.70;11.15;;;9.20;99.90;;;;;;5001500;28;20038;-64
2023/04/22 01:21:25;;;;;;;17.15;12.05;;;9.20;99.90;;;;;;4992251;28;20034;-65
2023/04/22 01:23:51;;;;;;;16.08;11.50;;;9.10;99.90;;;;;;5024079;28;20037;-64
2023/04/22 01:26:16;;;;;;;13.05;10.32;;;9.20;99.90;;;;;;4979130;28;20850;-65
2023/04/22 01:28:42;;;;;;;15.48;11.45;;;9.10;99.90;;;;;;5018599;28;20029;-64
2023/04/22 01:31:08;;;;;;;22.73;10.90;;;9.10;99.90;;;;;;5007380;28;20195;-64
2023/04/22 01:33:34;;;;;;;19.10;12.48;;;9.10;99.90;;;;;;5025253;28;20422;-65
2023/04/22 01:36:00;;;;;;;16.30;10.68;;;9.00;99.90;;;;;;5004887;28;20045;-64
2023/04/22 01:38:25;;;;;;;16.45;11.77;;;8.90;99.90;;;;;;5002748;28;20087;-65
2023/04/22 01:40:51;;;;;;;17.38;11.73;;;9.00;99.90;;;;;;5015293;28;20046;-64
2023/04/22 01:43:17;;;;;;;14.68;9.95;;;9.00;99.90;;;;;;5015552;28;20067;-64
2023/04/22 01:45:42;;;;;;;13.65;10.27;;;8.80;99.90;;;;;;5013121;28;20042;-64
2023/04/22 01:48:09;;;;;;;16.38;10.40;;;8.90;99.90;;;;;;5012615;28;20620;-64
2023/04/22 01:50:35;;;;;;;17.10;11.32;;;8.70;99.90;;;;;;5015843;28;20038;-64
2023/04/22 01:53:01;;;;;;;19.60;11.73;;;8.80;99.90;;;;;;5021780;28;20056;-65
2023/04/22 01:55:27;;;;;;;16.58;11.90;;;8.90;99.90;;;;;;5013884;28;20045;-64
2023/04/22 01:57:52;;;;;;;18.10;11.73;;;8.90;99.90;;;;;;5022643;28;20044;-64
2023/04/22 02:00:18;;;;;;;18.40;12.55;;;9.00;99.90;;;;;;4997578;28;20058;-64
2023/04/22 02:02:43;;;;;;;18.23;12.73;;;8.80;99.90;;;;;;4980656;28;20050;-64
2023/04/22 02:05:09;;;;;;;20.27;12.98;;;8.90;99.90;;;;;;4993560;28;20100;-65
2023/04/22 02:07:35;;;;;;;20.52;12.27;;;9.00;99.90;;;;;;4994925;28;20386;-65
2023/04/22 02:10:05;;;;;;;20.35;13.43;;;8.90;99.90;;;;;;4991888;28;20044;-65
2023/04/22 02:12:31;;;;;;;16.65;12.05;;;8.90;99.90;;;;;;4994975;28;20042;-64
2023/04/22 02:14:57;;;;;;;17.00;12.85;;;8.90;99.90;;;;;;5000148;28;20056;-65
2023/04/22 02:17:22;;;;;;;18.85;12.00;;;8.90;99.90;;;;;;4974986;28;20058;-65
2023/04/22 02:19:48;;;;;;;21.30;13.68;;;8.90;99.90;;;;;;4997484;28;20045;-65
2023/04/22 02:22:13;;;;;;;18.60;12.65;;;9.00;99.90;;;;;;4997157;28;20049;-64
2023/04/22 02:24:39;;;;;;;16.08;11.32;;;8.80;99.90;;;;;;5003896;28;20041;-65
2023/04/22 02:27:07;;;;;;;14.98;10.40;;;8.80;99.90;;;;;;4998320;28;20045;-64
2023/04/22 02:29:33;;;;;;;14.25;10.68;;;8.70;99.90;;;;;;4999621;28;20236;-64
2023/04/22 02:31:59;;;;;;;15.90;11.02;;;8.80;99.90;;;;;;4975660;28;20485;-64
2023/04/22 02:34:25;;;;;;;15.32;11.15;;;8.60;99.90;;;;;;4981293;28;20040;-65
2023/04/22 02:36:50;;;;;;;16.95;11.55;;;8.60;99.90;;;;;;4982744;28;20111;-65
2023/04/22 02:39:16;;;;;;;17.20;11.93;;;8.60;99.90;;;;;;4998741;28;20529;-65
2023/04/22 02:41:41;;;;;;;18.02;12.88;;;8.50;99.90;;;;;;4980434;28;20037;-64
2023/04/22 02:44:07;;;;;;;17.52;12.60;;;8.40;99.90;;;;;;4983073;28;20049;-64
2023/04/22 02:46:33;;;;;;;18.90;12.68;;;8.50;99.90;;;;;;4977206;28;20162;-64
2023/04/22 02:48:58;;;;;;;17.15;12.75;;;8.40;99.90;;;;;;5010883;28;20088;-65
2023/04/22 02:51:24;;;;;;;16.90;12.05;;;8.50;99.90;;;;;;4991740;28;20059;-64
2023/04/22 02:53:49;;;;;;;17.75;12.27;;;8.40;99.90;;;;;;5010758;28;20835;-64
2023/04/22 02:56:15;;;;;;;18.38;12.73;;;8.40;99.90;;;;;;4984735;28;20046;-65
2023/04/22 02:58:40;;;;;;;19.10;13.30;;;8.40;99.90;;;;;;5014931;28;20141;-65
2023/04/22 03:01:06;;;;;;;20.48;13.93;;;8.30;99.90;;;;;;5018277;28;20433;-65
2023/04/22 03:03:32;;;;;;;20.50;13.32;;;8.30;99.90;;;;;;5006502;28;20053;-64
2023/04/22 03:05:57;;;;;;;19.38;12.82;;;8.30;99.90;;;;;;5007942;28;20050;-64
2023/04/22 03:08:24;;;;;;;18.40;13.10;;;8.10;99.90;;;;;;5020769;28;20354;-65
2023/04/22 03:10:49;;;;;;;18.88;13.02;;;8.20;99.90;;;;;;5022998;28;20072;-64
2023/04/22 03:13:15;;;;;;;17.48;12.13;;;8.20;99.90;;;;;;4997316;28;20069;-64
2023/04/22 03:15:40;;;;;;;24.05;14.68;;;8.20;99.90;;;;;;5017904;28;20044;-65
2023/04/22 03:18:07;;;;;;;21.05;13.73;;;8.10;99.90;;;;;;5020612;28;20046;-64
2023/04/22 03:20:33;;;;;;;21.80;14.00;;;8.10;99.90;;;;;;5010347;28;20057;-64
2023/04/22 03:22:59;;;;;;;19.27;13.23;;;8.10;99.90;;;;;;5009961;28;20053;-64
2023/04/22 03:25:25;;;;;;;18.15;13.43;;;8.00;99.90;;;;;;5026263;28;20405;-64
2023/04/22 03:27:50;;;;;;;19.15;13.52;;;8.00;99.90;;;;;;4997905;28;20042;-64
2023/04/22 03:30:16;;;;;;;20.17;13.65;;;8.10;99.90;;;;;;5017456;28;20037;-65
2023/04/22 03:32:41;;;;;;;22.17;13.32;;;8.00;99.90;;;;;;5007493;28;20045;-64
2023/04/22 03:35:07;;;;;;;21.98;13.43;;;7.90;99.90;;;;;;4994195;28;20478;-65
2023/04/22 03:37:33;;;;;;;19.75;13.43;;;7.90;99.90;;;;;;5010581;28;20477;-64
2023/04/22 03:39:58;;;;;;;19.33;13.30;;;7.80;99.90;;;;;;5023769;28;20041;-64
2023/04/22 03:42:24;;;;;;;18.13;12.45;;;7.80;99.90;;;;;;5009860;28;20042;-64
2023/04/22 03:44:50;;;;;;;16.92;12.20;;;7.70;99.90;;;;;;5002972;28;20041;-64
2023/04/22 03:47:15;;;;;;;16.15;11.25;;;7.70;99.90;;;;;;5005195;28;20047;-64
2023/04/22 03:49:41;;;;;;;14.60;11.15;;;7.60;99.90;;;;;;5009792;28;20106;-64
2023/04/22 03:52:07;;;;;;;16.65;10.75;;;7.50;99.90;;;;;;5025812;28;20037;-65
2023/04/22 03:54:32;;;;;;;18.52;12.35;;;7.50;99.90;;;;;;5029935;28;20040;-64
2023/04/22 03:56:58;;;;;;;13.13;10.63;;;7.40;99.90;;;;;;5009207;28;20025;-64
2023/04/22 03:59:24;;;;;;;16.17;11.70;;;7.60;99.90;;;;;;5030157;28;20049;-65
2023/04/22 04:01:51;;;;;;;17.23;12.27;;;7.60;99.90;;;;;;5024147;28;20100;-63
2023/04/22 04:04:17;;;;;;;15.80;11.75;;;7.50;99.90;;;;;;5028003;28;20112;-64
2023/04/22 04:06:42;;;;;;;17.77;12.77;;;7.40;99.90;;;;;;5005606;28;20140;-64
2023/04/22 04:09:08;;;;;;;16.00;11.07;;;7.40;99.90;;;;;;5011691;28;20052;-64
2023/04/22 04:11:33;;;;;;;15.98;10.82;;;7.30;99.90;;;;;;5007195;28;20045;-64
2023/04/22 04:13:59;;;;;;;16.83;11.35;;;7.20;99.90;;;;;;5005614;28;20048;-63
2023/04/22 04:16:25;;;;;;;17.92;12.43;;;7.20;99.90;;;;;;5016555;28;20037;-64
2023/04/22 04:18:51;;;;;;;17.08;12.20;;;7.20;99.90;;;;;;4983113;28;20037;-64
2023/04/22 04:21:17;;;;;;;18.38;12.35;;;7.10;99.90;;;;;;4995095;28;20060;-65
2023/04/22 04:23:42;;;;;;;18.85;13.07;;;7.10;99.90;;;;;;4989320;28;20048;-65
2023/04/22 04:26:08;;;;;;;19.33;12.88;;;7.20;99.90;;;;;;4996934;28;20073;-65
2023/04/22 04:28:34;;;;;;;16.02;12.18;;;7.20;99.90;;;;;;5025536;28;20054;-64
2023/04/22 04:31:01;;;;;;;18.45;12.98;;;7.10;99.90;;;;;;5015007;28;20041;-65
2023/04/22 04:33:33;;;;;;;23.40;14.63;;;7.10;99.90;;;;;;4997173;28;20046;-65
2023/04/22 04:35:59;;;;;;;20.75;13.23;;;7.10;99.90;;;;;;4999320;28;20025;-65
2023/04/22 04:38:25;;;;;;;17.98;12.63;;;7.20;99.90;;;;;;5013618;28;20041;-63
2023/04/22 04:40:52;;;;;;;22.88;14.40;;;7.20;99.90;;;;;;4997583;28;20038;-64
2023/04/22 04:43:18;;;;;;;23.50;13.85;;;7.20;99.90;;;;;;5016439;28;20270;-64
2023/04/22 04:45:45;;;;;;;20.02;13.20;;;7.20;99.90;;;;;;4999430;28;20129;-65
2023/04/22 04:48:13;;;;;;;18.80;11.88;;;7.30;99.90;;;;;;4997102;28;20532;-64
2023/04/22 04:50:41;;;;;;;15.80;11.05;;;7.20;99.90;;;;;;5014557;28;20046;-64
2023/04/22 04:53:07;;;;;;;19.65;13.07;;;7.30;99.90;;;;;;5013364;28;20068;-63
2023/04/22 04:55:32;;;;;;;14.85;9.27;;;7.20;99.90;;;;;;5000307;28;20393;-63
2023/04/22 04:57:58;;;;;;;14.25;10.20;;;7.30;99.90;;;;;;4998447;28;20041;-63
2023/04/22 05:00:23;;;;;;;14.60;10.95;;;7.30;99.90;;;;;;4997334;28;20056;-64
2023/04/22 05:02:50;;;;;;;14.05;10.07;;;7.20;99.90;;;;;;5011216;28;20358;-63
2023/04/22 05:05:16;;;;;;;14.70;10.48;;;7.20;99.90;;;;;;4999260;28;20052;-64
2023/04/22 05:07:41;;;;;;;14.43;9.73;;;7.20;99.90;;;;;;5015888;28;20041;-64
2023/04/22 05:10:08;;;;;;;11.63;8.93;;;7.20;99.90;;;;;;5014306;28;20033;-64
2023/04/22 05:12:33;;;;;;;11.68;8.30;;;7.10;99.90;;;;;;4999933;28;20034;-64
2023/04/22 05:14:59;;;;;;;12.48;9.73;;;7.10;99.90;;;;;;4997345;28;20041;-64
2023/04/22 05:17:25;;;;;;;14.35;10.63;;;7.10;99.90;;;;;;4993024;28;20468;-65
2023/04/22 05:19:51;;;;;;;19.60;12.98;;;7.10;99.90;;;;;;5015019;28;20048;-65
2023/04/22 05:22:17;;;;;;;16.38;11.73;;;7.20;99.90;;;;;;4996884;28;20030;-64
2023/04/22 05:24:42;;;;;;;19.05;13.52;;;7.30;99.90;;;;;;4997391;28;20056;-65
2023/04/22 05:27:08;;;;;;;23.95;14.32;;;7.40;99.90;;;;;;5018010;28;20087;-63
2023/04/22 05:29:34;;;;;;;27.85;16.38;;;7.50;99.90;;;;;;4999210;28;20135;-64
2023/04/22 05:32:00;;;;;;;30.75;17.83;;;7.80;99.90;;;;;;4992094;28;20041;-64
2023/04/22 05:34:25;;;;;;;27.20;18.25;;;7.80;99.90;;;;;;5018214;28;20107;-64
2023/04/22 05:36:51;;;;;;;27.35;17.33;;;8.00;99.90;;;;;;5011901;28;20068;-63
2023/04/22 05:39:17;;;;;;;28.83;18.45;;;8.10;99.90;;;;;;4997622;28;20441;-64
2023/04/22 05:41:42;;;;;;;25.35;17.55;;;8.30;99.90;;;;;;5011215;28;20394;-65
2023/04/22 05:44:08;;;;;;;30.58;18.70;;;8.30;99.90;;;;;;5016726;28;20128;-64
2023/04/22 05:46:34;;;;;;;27.20;17.95;;;8.40;99.90;;;;;;5005813;28;20103;-64
2023/04/22 05:48:59;;;;;;;28.30;17.77;;;8.50;99.90;;;;;;5010788;28;20069;-63
2023/04/22 05:51:25;;;;;;;29.25;17.08;;;8.60;99.90;;;;;;5009114;28;20575;-63
2023/04/22 05:53:51;;;;;;;28.25;18.27;;;8.70;99.90;;;;;;5011840;28;20489;-64
2023/04/22 05:56:16;;;;;;;26.73;17.10;;;8.70;99.90;;;;;;4992225;28;20042;-64
2023/04/22 05:58:42;;;;;;;29.13;18.25;;;8.80;99.90;;;;;;5018794;28;20065;-63
2023/04/22 06:01:08;;;;;;;24.40;16.48;;;8.90;99.90;;;;;;5009182;28;20049;-65
2023/04/22 06:03:33;;;;;;;23.75;16.83;;;8.90;99.90;;;;;;5020314;28;20048;-64
2023/04/22 06:05:59;;;;;;;25.45;16.80;;;8.90;99.90;;;;;;5013316;28;20029;-63
2023/04/22 06:08:25;;;;;;;25.23;17.35;;;9.00;99.90;;;;;;5009928;28;20038;-62
2023/04/22 06:10:51;;;;;;;26.60;17.50;;;9.10;99.90;;;;;;5018634;28;20045;-63
2023/04/22 06:13:16;;;;;;;26.88;17.23;;;9.10;99.90;;;;;;4995701;28;20104;-63
2023/04/22 06:15:42;;;;;;;26.02;17.17;;;9.20;99.90;;;;;;5009630;28;20069;-64
2023/04/22 06:18:08;;;;;;;27.10;18.15;;;9.30;99.90;;;;;;5012945;28;20110;-62
2023/04/22 06:20:34;;;;;;;24.42;16.73;;;9.30;99.90;;;;;;5013288;28;20127;-64
2023/04/22 06:23:01;;;;;;;25.60;17.95;;;9.40;99.90;;;;;;5001675;28;20056;-63
2023/04/22 06:25:26;;;;;;;26.52;17.27;;;9.40;99.90;;;;;;5015931;28;20050;-62
2023/04/22 06:27:52;;;;;;;24.45;17.48;;;9.50;99.90;;;;;;4996130;28;20053;-64
2023/04/22 06:30:18;;;;;;;25.73;16.98;;;9.50;99.90;;;;;;5017890;28;20049;-64
2023/04/22 06:32:43;;;;;;;24.98;17.33;;;9.60;99.90;;;;;;4988922;28;20037;-63
2023/04/22 06:35:09;;;;;;;23.88;17.00;;;9.60;99.90;;;;;;5020507;28;20052;-63
2023/04/22 06:37:35;;;;;;;26.33;17.88;;;9.60;99.90;;;;;;5012020;28;20448;-63
2023/04/22 06:40:01;;;;;;;24.00;16.55;;;9.70;99.90;;;;;;5004806;28;20434;-64
2023/04/22 06:42:26;;;;;;;24.23;17.48;;;9.80;99.90;;;;;;5017007;28;20041;-62
2023/04/22 06:44:52;;;;;;;22.77;17.25;;;9.80;99.90;;;;;;5031027;28;20365;-62
2023/04/22 06:47:18;;;;;;;24.02;16.92;;;9.80;99.90;;;;;;4999420;28;20042;-63
2023/04/22 06:49:44;;;;;;;23.55;17.33;;;9.90;99.90;;;;;;5026020;28;20481;-63
2023/04/22 06:52:09;;;;;;;23.35;16.38;;;9.90;99.90;;;;;;4999533;28;20049;-63
2023/04/22 06:54:35;;;;;;;23.73;17.23;;;10.00;99.90;;;;;;5016613;28;20088;-64
2023/04/22 06:57:01;;;;;;;23.95;17.08;;;10.10;99.90;;;;;;4995567;28;20034;-63
2023/04/22 06:59:26;;;;;;;25.83;17.17;;;10.10;99.90;;;;;;5020981;28;20572;-62
2023/04/22 07:01:52;;;;;;;24.65;17.27;;;10.20;99.90;;;;;;5010962;28;20053;-63
2023/04/22 07:04:17;;;;;;;23.35;16.38;;;10.20;99.90;;;;;;4993082;28;20045;-63
2023/04/22 07:06:43;;;;;;;26.02;17.63;;;10.30;99.90;;;;;;5011305;28;20050;-63
2023/04/22 07:09:08;;;;;;;24.27;17.23;;;10.40;99.90;;;;;;5012127;28;20041;-63
2023/04/22 07:11:34;;;;;;;25.30;17.20;;;10.50;99.90;;;;;;5013082;28;20129;-62
2023/04/22 07:13:59;;;;;;;23.98;17.17;;;10.60;99.90;;;;;;5028959;28;20041;-63
2023/04/22 07:16:25;;;;;;;25.17;17.17;;;10.70;99.90;;;;;;5028049;28;20044;-64
2023/04/22 07:18:51;;;;;;;24.63;16.63;;;10.70;99.90;;;;;;5007155;28;20045;-63
2023/04/22 07:21:16;;;;;;;24.42;17.17;;;10.80;99.90;;;;;;5026309;28;20036;-63
2023/04/22 07:23:42;;;;;;;22.27;16.50;;;10.90;99.90;;;;;;5031983;28;20085;-64
2023/04/22 07:26:07;;;;;;;23.25;17.25;;;11.00;99.90;;;;;;5021929;28;20046;-64
2023/04/22 07:28:33;;;;;;;22.23;16.02;;;11.20;99.90;;;;;;5014013;28;20136;-63
2023/04/22 07:30:59;;;;;;;22.48;15.68;;;11.30;99.90;;;;;;5030764;28;20033;-64
2023/04/22 07:33:24;;;;;;;24.73;15.85;;;11.30;99.90;;;;;;5007018;28;20081;-62
2023/04/22 07:35:50;;;;;;;21.92;16.02;;;11.40;99.90;;;;;;5017945;28;20351;-63
2023/04/22 07:38:15;;;;;;;22.73;16.00;;;11.50;99.90;;;;;;5017168;28;20034;-64
2023/04/22 07:40:41;;;;;;;22.63;16.67;;;11.60;99.90;;;;;;5001234;28;20102;-64
2023/04/22 07:43:06;;;;;;;22.48;15.90;;;11.70;99.90;;;;;;5024741;28;20040;-63
2023/04/22 07:45:32;;;;;;;20.90;14.60;;;11.80;99.90;;;;;;5032099;28;20068;-63
2023/04/22 07:47:58;;;;;;;19.60;14.52;;;11.80;99.90;;;;;;5022298;28;20053;-63
2023/04/22 07:50:23;;;;;;;19.98;15.13;;;11.90;99.90;;;;;;5011640;28;20041;-64
2023/04/22 07:52:49;;;;;;;19.67;14.75;;;12.00;99.90;;;;;;5009965;28;20044;-63
2023/04/22 07:55:15;;;;;;;19.02;14.18;;;12.10;99.90;;;;;;5025269;28;20497;-65
2023/04/22 07:57:40;;;;;;;18.40;13.88;;;12.10;99.90;;;;;;5022904;28;20535;-64
2023/04/22 08:00:08;;;;;;;17.80;12.88;;;12.20;99.90;;;;;;5013764;28;20054;-64
2023/04/22 08:02:33;;;;;;;19.02;13.25;;;12.20;99.90;;;;;;5005552;28;20045;-65
2023/04/22 08:04:59;;;;;;;16.13;12.63;;;12.30;99.90;;;;;;5030427;28;20041;-65
2023/04/22 08:07:25;;;;;;;15.38;11.63;;;12.40;99.90;;;;;;4991855;28;20114;-64
2023/04/22 08:09:51;;;;;;;18.52;12.98;;;12.50;99.90;;;;;;5007014;28;20048;-64
2023/04/22 08:12:16;;;;;;;17.35;12.65;;;12.70;99.90;;;;;;5026700;28;20052;-64
2023/04/22 08:14:42;;;;;;;18.70;13.07;;;13.00;99.90;;;;;;5011436;28;20042;-64
2023/04/22 08:17:08;;;;;;;17.55;11.18;;;13.40;99.90;;;;;;5007864;28;20592;-65
2023/04/22 08:19:33;;;;;;;15.65;12.50;;;13.70;99.90;;;;;;5004879;28;20052;-64
2023/04/22 08:21:59;;;;;;;14.95;10.77;;;14.00;99.90;;;;;;5020869;28;20656;-64
2023/04/22 08:24:24;;;;;;;13.68;11.57;;;14.20;99.90;;;;;;5009463;28;20038;-64
2023/04/22 08:26:50;;;;;;;16.75;12.13;;;14.50;99.90;;;;;;5000734;28;20095;-66
2023/04/22 08:29:16;;;;;;;14.63;11.50;;;14.60;99.90;;;;;;5010654;28;20045;-64
2023/04/22 08:31:41;;;;;;;15.32;12.10;;;14.80;99.90;;;;;;5019897;28;20049;-65
2023/04/22 08:34:07;;;;;;;15.90;12.00;;;15.00;99.90;;;;;;5010323;28;20054;-65
2023/04/22 08:36:32;;;;;;;13.65;11.07;;;15.10;99.90;;;;;;4994749;28;20042;-64
2023/04/22 08:38:58;;;;;;;12.75;10.68;;;15.20;99.90;;;;;;5012445;28;20050;-64
2023/04/22 08:41:25;;;;;;;13.23;10.93;;;15.30;99.90;;;;;;5024158;28;21102;-64
2023/04/22 08:43:51;;;;;;;13.77;9.80;;;15.70;99.90;;;;;;5011832;28;20037;-66
2023/04/22 08:46:20;;;;;;;11.63;9.57;;;16.10;99.90;;;;;;4987136;28;20549;-64
2023/04/22 08:48:50;;;;;;;12.65;10.18;;;16.60;99.90;;;;;;5009953;28;20049;-65
2023/04/22 08:51:16;;;;;;;13.90;9.70;;;17.10;99.90;;;;;;5010288;28;20037;-64
2023/04/22 08:53:43;;;;;;;10.88;9.55;;;17.40;99.90;;;;;;4996391;28;20051;-65
2023/04/22 08:56:11;;;;;;;12.40;9.90;;;18.00;99.90;;;;;;4997736;28;20037;-66
2023/04/22 08:58:39;;;;;;;12.30;9.73;;;18.50;99.90;;;;;;5026418;28;20053;-65
2023/04/22 09:01:06;;;;;;;11.63;9.25;;;19.00;99.90;;;;;;5012162;28;20051;-63
2023/04/22 09:03:37;;;;;;;11.02;8.95;;;18.80;99.90;;;;;;5032120;28;20041;-65
2023/04/22 09:06:04;;;;;;;10.02;9.02;;;19.10;99.90;;;;;;5011522;28;20041;-65
2023/04/22 09:08:31;;;;;;;10.00;8.95;;;19.30;99.90;;;;;;5030259;28;20587;-68
2023/04/22 09:11:01;;;;;;;10.85;8.50;;;19.40;99.10;;;;;;5030229;28;20475;-66
2023/04/22 09:13:27;;;;;;;;;;;19.50;99.90;;;;;;5013004;28;20476;-67
2023/04/22 09:15:52;;;;;;;11.70;8.73;;;19.40;83.20;;;;;;4995956;28;19917;-68
2023/04/22 09:18:18;;;;;;;12.45;8.70;;;19.50;99.90;;;;;;5010386;28;20466;-65
2023/04/22 09:20:46;;;;;;;9.88;8.73;;;19.50;99.90;;;;;;5030423;28;20428;-65
2023/04/22 09:23:12;;;;;;;9.85;8.45;;;19.50;99.90;;;;;;5012581;28;20037;-65
2023/04/22 09:25:39;;;;;;;10.40;8.98;;;19.30;99.90;;;;;;4991845;28;20056;-64
2023/04/22 09:28:05;;;;;;;11.60;8.35;;;19.10;96.90;;;;;;5026487;28;20556;-63
2023/04/22 09:30:36;;;;;;;10.23;8.35;;;18.90;99.90;;;;;;4980107;28;20132;-63
2023/04/22 09:33:04;;;;;;;11.85;8.40;;;18.40;87.70;;;;;;5014741;28;20037;-66
2023/04/22 09:35:31;;;;;;;9.43;8.05;;;18.50;96.40;;;;;;5011466;28;20029;-66
2023/04/22 09:37:58;;;;;;;10.20;8.65;;;18.80;91.70;;;;;;5007368;28;20052;-66
2023/04/22 09:40:24;;;;;;;10.25;7.78;;;19.30;90.60;;;;;;5010592;28;20042;-67
2023/04/22 09:42:57;;;;;;;9.85;8.82;;;19.60;88.60;;;;;;5011560;28;20045;-64
2023/04/22 09:45:37;;;;;;;9.73;8.35;;;19.50;82.90;;;;;;5010491;28;20045;-64
2023/04/22 09:48:10;;;;;;;10.07;8.25;;;19.40;76.60;;;;;;5022840;28;20102;-65
2023/04/22 09:50:37;;;;;;;10.07;8.20;;;19.20;81.50;;;;;;5014666;28;20038;-66
2023/04/22 09:53:06;;;;;;;9.20;7.50;;;19.10;82.40;;;;;;5032648;28;20132;-66
2023/04/22 09:55:34;;;;;;;9.30;7.43;;;19.20;83.70;;;;;;5011644;28;20040;-67
2023/04/22 09:58:06;;;;;;;9.88;6.75;;;19.30;81.90;;;;;;5029972;28;20033;-64
2023/04/22 10:00:31;;;;;;;10.75;7.25;;;19.10;74.10;;;;;;5005182;28;20054;-65
2023/04/22 10:02:57;;;;;;;8.40;7.07;;;19.30;77.40;;;;;;5008658;28;20045;-64
2023/04/22 10:05:24;;;;;;;11.85;7.55;;;19.30;77.60;;;;;;5015256;28;20046;-65
2023/04/22 10:07:50;;;;;;;8.82;7.93;;;19.40;77.50;;;;;;5013390;28;20087;-66
2023/04/22 10:10:16;;;;;;;11.38;8.50;;;19.50;74.50;;;;;;5034156;28;20037;-67
2023/04/22 10:12:42;;;;;;;10.07;8.02;;;19.40;75.10;;;;;;5012144;28;20083;-67
2023/04/22 10:15:08;;;;;;;10.77;7.90;;;19.80;73.90;;;;;;5021332;28;20132;-67
2023/04/22 10:17:37;;;;;;;9.07;7.45;;;20.10;72.70;;;;;;5011628;28;20504;-69
2023/04/22 10:20:12;;;;;;;9.05;7.60;;;20.40;69.30;;;;;;5002761;28;20077;-64
2023/04/22 10:22:38;;;;;;;8.95;7.50;;;20.70;69.80;;;;;;4988096;28;20034;-71
2023/04/22 10:25:04;;;;;;;7.85;7.00;;;20.70;68.40;;;;;;5014102;28;20460;-66
2023/04/22 10:27:30;;;;;;;8.00;6.10;;;20.60;67.10;;;;;;5010334;28;20128;-67
2023/04/22 10:29:56;;;;;;;9.35;6.13;;;20.50;66.80;;;;;;5012043;28;20370;-67
2023/04/22 10:32:23;;;;;;;7.05;6.32;;;20.40;66.80;;;;;;5011574;28;20060;-64
2023/04/22 10:35:05;;;;;;;7.72;5.93;;;20.20;66.30;;;;;;4997703;28;20104;-66
2023/04/22 10:37:30;;;;;;;7.70;5.57;;;20.10;65.10;;;;;;5013670;28;20034;-66
2023/04/22 10:40:12;;;;;;;6.05;5.45;;;20.20;66.40;;;;;;4996983;28;20480;-66
2023/04/22 10:42:45;;;;;;;7.75;5.97;;;20.20;65.40;;;;;;5008730;28;20037;-68
2023/04/22 10:45:14;;;;;;;6.75;5.40;;;20.30;65.10;;;;;;5026439;28;20041;-67
2023/04/22 10:47:40;;;;;;;7.73;5.80;;;20.30;64.50;;;;;;5024956;28;20056;-68
2023/04/22 10:50:22;;;;;;;6.97;5.30;;;20.10;64.10;;;;;;5013683;28;20296;-69
2023/04/22 10:52:57;;;;;;;7.65;5.65;;;20.10;61.60;;;;;;5029988;28;20088;-66
2023/04/22 10:55:24;;;;;;;5.90;5.30;;;20.00;63.30;;;;;;4996291;28;20045;-66
2023/04/22 10:57:51;;;;;;;8.20;4.90;;;20.00;64.10;;;;;;5027314;28;20359;-68
2023/04/22 11:00:28;;;;;;;9.85;5.93;;;20.00;64.40;;;;;;5013642;28;20053;-69
2023/04/22 11:03:09;;;;;;;7.55;6.00;;;20.10;62.90;;;;;;5005620;28;20076;-67
2023/04/22 11:05:36;;;;;;;7.78;6.20;;;20.10;62.70;;;;;;5005693;28;20033;-64
2023/04/22 11:08:03;;;;;;;6.82;5.88;;;20.10;62.20;;;;;;5004066;28;20033;-67
2023/04/22 11:10:45;;;;;;;6.80;5.68;;;20.10;62.20;;;;;;5004767;28;20041;-67
2023/04/22 11:13:20;;;;;;;7.18;5.65;;;20.10;62.60;;;;;;5019769;28;20125;-65
2023/04/22 11:15:48;;;;;;;6.85;5.53;;;20.20;61.60;;;;;;5005858;28;20048;-66
2023/04/22 11:18:20;;;;;;;8.52;5.57;;;20.10;60.70;;;;;;4996765;28;20046;-68
2023/04/22 11:20:48;;;;;;;8.68;5.63;;;20.20;62.20;;;;;;5007759;28;20125;-66
2023/04/22 11:23:26;;;;;;;6.32;4.90;;;20.20;61.20;;;;;;5002215;28;20049;-67
2023/04/22 11:26:03;;;;;;;8.07;5.68;;;20.30;62.40;;;;;;4993822;28;20080;-66
2023/04/22 11:28:29;;;;;;;6.13;5.45;;;20.30;59.90;;;;;;5005920;28;20041;-65
2023/04/22 11:31:06;;;;;;;8.13;4.95;;;20.30;60.60;;;;;;5007049;28;20043;-67
2023/04/22 11:33:33;;;;;;;9.50;5.72;;;20.40;59.10;;;;;;5010061;28;20096;-65
2023/04/22 11:35:58;;;;;;;6.60;5.15;;;20.40;58.60;;;;;;5009859;28;20038;-67
2023/04/22 11:38:24;;;;;;;6.43;5.53;;;20.50;60.40;;;;;;5015605;28;20080;-66
2023/04/22 11:40:50;;;;;;;10.40;6.38;;;20.50;59.90;;;;;;5003521;28;20033;-67
2023/04/22 11:43:17;;;;;;;7.68;6.38;;;20.60;59.70;;;;;;5009412;28;20037;-66
2023/04/22 11:45:42;;;;;;;7.47;5.82;;;20.70;60.20;;;;;;5031215;28;20497;-65
2023/04/22 11:48:10;;;;;;;7.10;6.30;;;20.80;60.10;;;;;;5003934;28;20030;-65
2023/04/22 11:50:38;;;;;;;8.05;6.45;;;20.90;59.40;;;;;;5007161;28;20065;-66
2023/04/22 11:53:25;;;;;;;7.40;6.43;;;21.00;56.90;;;;;;5004217;28;20045;-67
2023/04/22 11:55:51;;;;;;;7.85;5.75;;;20.90;58.10;;;;;;5010158;28;20493;-66
2023/04/22 11:58:26;;;;;;;9.77;6.72;;;20.90;59.00;;;;;;5009727;28;20087;-65
2023/04/22 12:00:54;;;;;;;9.32;6.15;;;21.00;56.90;;;;;;5028983;28;20124;-66
2023/04/22 12:03:25;;;;;;;9.05;5.60;;;21.10;58.00;;;;;;5008710;28;20038;-67
2023/04/22 12:05:51;;;;;;;7.43;6.10;;;21.30;58.30;;;;;;5012477;28;20103;-65
2023/04/22 12:08:19;;;;;;;7.35;5.75;;;21.40;57.40;;;;;;5013204;28;20482;-69
2023/04/22 12:10:45;;;;;;;7.22;5.85;;;21.40;57.30;;;;;;5009600;28;20042;-68
2023/04/22 12:13:24;;;;;;;7.90;6.75;;;21.30;57.60;;;;;;4990733;28;20117;-65
2023/04/22 12:15:56;;;;;;;8.10;6.95;;;21.60;56.60;;;;;;5014156;28;20117;-67
2023/04/22 12:18:37;;;;;;;8.05;5.97;;;21.40;57.10;;;;;;5011145;28;20063;-65
2023/04/22 12:21:05;;;;;;;8.40;6.40;;;21.20;54.90;;;;;;5012688;28;20045;-66
2023/04/22 12:23:42;;;;;;;13.40;7.28;;;21.00;58.00;;;;;;5007030;28;20045;-67
2023/04/22 12:26:08;;;;;;;8.10;6.43;;;20.90;57.20;;;;;;5018105;28;20394;-63
2023/04/22 12:28:33;;;;;;;12.73;7.53;;;20.70;57.50;;;;;;5007936;28;20037;-71
2023/04/22 12:30:59;;;;;;;8.25;6.55;;;20.70;58.20;;;;;;5008103;28;20486;-67
2023/04/22 12:33:24;;;;;;;9.57;7.03;;;20.80;57.90;;;;;;5007685;28;20650;-66
2023/04/22 12:35:51;;;;;;;6.78;5.70;;;20.80;56.80;;;;;;5031193;28;20041;-66